Time;durP1;ratioP1;P1;durP2;ratioP2;P2;SDS_P1;SDS_P2;PMS_P1;PMS_P2;Temp;Humidity;BMP_temperature;BMP_pressure;BME280_temperature;BME280_humidity;BME280_pressure;Samples;Min_cycle;Max_cycle;Signal;HPM_P1;HPM_P2
2024/04/01 00:00:25;;;;;;;38.63;36.63;;;;;;;;;;5110806;27;20034;-57
2024/04/01 00:02:51;;;;;;;38.88;36.88;;;;;;;;;;5108811;27;20043;-58
2024/04/01 00:05:16;;;;;;;36.63;34.72;;;;;;;;;;5109692;27;20035;-58
2024/04/01 00:07:45;;;;;;;36.22;34.33;;;;;;;;;;5112770;27;20512;-58
2024/04/01 00:10:10;;;;;;;32.60;30.90;;;;;;;;;;5112873;27;20039;-58
2024/04/01 00:12:36;;;;;;;33.85;32.15;;;;;;;;;;5115765;27;20050;-58
2024/04/01 00:15:02;;;;;;;32.25;30.55;;;;;;;;;;5095312;27;20032;-58
2024/04/01 00:17:27;;;;;;;32.97;31.27;;;;;;;;;;5112372;27;20027;-58
2024/04/01 00:19:53;;;;;;;31.90;30.25;;;;;;;;;;5113878;27;20425;-58
2024/04/01 00:22:18;;;;;;;31.60;29.95;;;;;;;;;;5111635;27;20496;-58
2024/04/01 00:24:43;;;;;;;31.15;29.55;;;;;;;;;;5113191;27;20130;-58
2024/04/01 00:27:10;;;;;;;35.00;33.20;;;;;;;;;;5112145;27;20165;-58
2024/04/01 00:29:36;;;;;;;32.90;31.20;;;;;;;;;;5112389;27;20396;-58
2024/04/01 00:32:01;;;;;;;34.97;33.17;;;;;;;;;;5111926;27;20031;-58
2024/04/01 00:34:26;;;;;;;38.80;36.83;;;;;;;;;;5114390;27;20128;-58
2024/04/01 00:36:52;;;;;;;37.22;35.33;;;;;;;;;;5096470;27;20028;-58
2024/04/01 00:39:17;;;;;;;35.67;33.85;;;;;;;;;;5111940;27;20039;-58
2024/04/01 00:41:42;;;;;;;43.78;41.55;;;;;;;;;;5095274;27;20527;-58
2024/04/01 00:44:07;;;;;;;61.08;58.00;;;;;;;;;;5115652;27;20361;-58
2024/04/01 00:46:33;;;;;;;56.40;53.58;;;;;;;;;;5111830;27;20364;-58
2024/04/01 00:48:58;;;;;;;39.25;37.25;;;;;;;;;;5110510;27;20409;-58
2024/04/01 00:51:24;;;;;;;39.13;37.13;;;;;;;;;;5118251;27;20067;-58
2024/04/01 00:53:51;;;;;;;64.38;61.15;;;;;;;;;;5114715;27;20422;-58
2024/04/01 00:56:18;;;;;;;58.65;55.70;;;;;;;;;;5112755;27;20032;-57
2024/04/01 00:58:44;;;;;;;63.10;59.92;;;;;;;;;;5115479;27;20042;-57
2024/04/01 01:01:10;;;;;;;64.28;61.08;;;;;;;;;;5115239;27;20031;-58
2024/04/01 01:03:35;;;;;;;93.10;88.40;;;;;;;;;;5115026;27;20417;-58
2024/04/01 01:06:02;;;;;;;79.80;75.82;;;;;;;;;;5113993;27;20122;-58
2024/04/01 01:08:29;;;;;;;82.25;78.15;;;;;;;;;;5114785;27;20031;-58
2024/04/01 01:10:54;;;;;;;75.45;71.70;;;;;;;;;;5094151;27;20028;-58
2024/04/01 01:13:20;;;;;;;98.65;93.78;;;;;;;;;;5115035;27;20035;-58
2024/04/01 01:15:45;;;;;;;83.20;79.05;;;;;;;;;;5077162;28;20033;-58
2024/04/01 01:18:11;;;;;;;112.28;106.72;;;;;;;;;;5111691;27;20509;-58
2024/04/01 01:20:37;;;;;;;112.70;106.97;;;;;;;;;;5111311;27;20040;-58
2024/04/01 01:23:02;;;;;;;133.75;127.10;;;;;;;;;;5111514;27;20368;-58
2024/04/01 01:25:27;;;;;;;156.55;148.65;;;;;;;;;;5114765;27;20040;-58
2024/04/01 01:27:53;;;;;;;170.93;162.52;;;;;;;;;;5114062;27;20576;-58
2024/04/01 01:30:18;;;;;;;181.88;172.98;;;;;;;;;;5113883;27;20038;-58
2024/04/01 01:32:47;;;;;;;187.25;178.05;;;;;;;;;;5111762;27;20411;-58
2024/04/01 01:35:21;;;;;;;192.55;183.02;;;;;;;;;;5110284;27;20027;-58
2024/04/01 01:37:50;;;;;;;176.25;167.52;;;;;;;;;;5113446;27;20027;-58
2024/04/01 01:40:16;;;;;;;176.13;167.43;;;;;;;;;;5113044;27;20031;-58
2024/04/01 01:42:41;;;;;;;186.15;176.98;;;;;;;;;;5110742;27;20122;-58
2024/04/01 01:45:07;;;;;;;173.65;165.02;;;;;;;;;;5110828;27;20491;-56
2024/04/01 01:47:34;;;;;;;181.60;172.57;;;;;;;;;;5115502;27;20062;-58
2024/04/01 01:50:00;;;;;;;169.60;161.10;;;;;;;;;;5111869;27;20031;-56
2024/04/01 01:52:26;;;;;;;166.50;158.25;;;;;;;;;;5092534;28;20037;-56
2024/04/01 01:54:52;;;;;;;182.05;172.80;;;;;;;;;;5092506;27;20319;-58
2024/04/01 01:57:17;;;;;;;199.00;189.18;;;;;;;;;;5112331;27;20039;-58
2024/04/01 01:59:42;;;;;;;188.20;178.95;;;;;;;;;;5112051;27;20035;-58
2024/04/01 02:02:08;;;;;;;160.15;152.20;;;;;;;;;;5115811;27;20496;-58
2024/04/01 02:04:34;;;;;;;162.38;154.35;;;;;;;;;;5113055;28;20019;-58
2024/04/01 02:07:00;;;;;;;160.82;152.82;;;;;;;;;;5114666;28;20465;-54
2024/04/01 02:09:25;;;;;;;158.07;150.27;;;;;;;;;;5112249;28;20354;-54
2024/04/01 02:11:51;;;;;;;169.10;160.75;;;;;;;;;;5113977;28;20100;-54
2024/04/01 02:14:16;;;;;;;184.82;175.65;;;;;;;;;;5110340;28;20027;-55
2024/04/01 02:16:41;;;;;;;181.85;172.82;;;;;;;;;;5116979;28;20096;-54
2024/04/01 02:19:07;;;;;;;187.70;178.35;;;;;;;;;;5112745;28;20039;-53
2024/04/01 02:21:32;;;;;;;197.13;187.25;;;;;;;;;;5111383;28;20099;-56
2024/04/01 02:23:58;;;;;;;203.98;193.75;;;;;;;;;;5110193;28;20031;-57
2024/04/01 02:26:23;;;;;;;190.15;180.55;;;;;;;;;;5110825;28;20042;-55
2024/04/01 02:28:49;;;;;;;180.65;171.63;;;;;;;;;;5116238;28;20038;-55
2024/04/01 02:31:15;;;;;;;159.00;151.02;;;;;;;;;;5111959;28;20158;-56
2024/04/01 02:33:40;;;;;;;136.10;129.23;;;;;;;;;;5116944;27;20031;-54
2024/04/01 02:36:06;;;;;;;117.30;111.40;;;;;;;;;;5114010;27;20041;-52
2024/04/01 02:38:31;;;;;;;117.95;112.00;;;;;;;;;;5116668;27;20035;-55
2024/04/01 02:40:56;;;;;;;102.95;97.75;;;;;;;;;;5116691;27;20114;-53
2024/04/01 02:43:22;;;;;;;97.45;92.50;;;;;;;;;;5121273;27;20585;-55
2024/04/01 02:45:47;;;;;;;89.88;85.38;;;;;;;;;;5116132;27;20038;-54
2024/04/01 02:48:13;;;;;;;92.55;87.93;;;;;;;;;;5116859;27;20027;-55
2024/04/01 02:50:38;;;;;;;101.57;96.47;;;;;;;;;;5117293;27;20491;-54
2024/04/01 02:53:04;;;;;;;93.13;88.43;;;;;;;;;;5116494;27;20043;-55
2024/04/01 02:55:29;;;;;;;79.43;75.43;;;;;;;;;;5100555;27;20043;-54
2024/04/01 02:57:54;;;;;;;93.20;88.55;;;;;;;;;;5116387;27;20023;-55
2024/04/01 03:00:20;;;;;;;97.28;92.43;;;;;;;;;;5114432;27;20453;-58
2024/04/01 03:02:47;;;;;;;89.63;85.18;;;;;;;;;;5114885;27;20050;-58
2024/04/01 03:05:16;;;;;;;88.03;83.63;;;;;;;;;;5114561;27;20047;-57
2024/04/01 03:07:43;;;;;;;84.03;79.75;;;;;;;;;;5115015;27;20039;-57
2024/04/01 03:10:11;;;;;;;66.07;62.72;;;;;;;;;;5115755;27;20039;-57
2024/04/01 03:12:43;;;;;;;84.07;79.88;;;;;;;;;;5116944;27;20046;-58
2024/04/01 03:15:09;;;;;;;79.63;75.65;;;;;;;;;;5115314;27;20114;-59
2024/04/01 03:17:35;;;;;;;82.68;78.53;;;;;;;;;;5115495;27;20023;-58
2024/04/01 03:20:01;;;;;;;79.30;75.35;;;;;;;;;;5117891;27;20045;-59
2024/04/01 03:22:27;;;;;;;85.05;80.50;;;;;;;;;;5116313;27;20035;-59
2024/04/01 03:24:53;;;;;;;78.22;74.30;;;;;;;;;;5099463;27;20034;-58
2024/04/01 03:27:20;;;;;;;73.15;69.47;;;;;;;;;;5114601;27;20118;-59
2024/04/01 03:29:45;;;;;;;75.30;71.53;;;;;;;;;;5115982;27;20045;-60
2024/04/01 03:32:11;;;;;;;70.82;67.28;;;;;;;;;;5115902;27;20031;-58
2024/04/01 03:34:36;;;;;;;74.10;70.38;;;;;;;;;;5111909;27;20039;-58
2024/04/01 03:37:02;;;;;;;77.03;73.15;;;;;;;;;;5118594;27;20110;-58
2024/04/01 03:39:31;;;;;;;73.68;69.85;;;;;;;;;;5116001;27;20114;-58
2024/04/01 03:41:57;;;;;;;61.92;58.78;;;;;;;;;;5117495;27;20039;-58
2024/04/01 03:44:24;;;;;;;57.50;54.55;;;;;;;;;;5113151;27;20088;-58
2024/04/01 03:46:49;;;;;;;54.42;51.67;;;;;;;;;;5113400;27;20595;-58
2024/04/01 03:49:16;;;;;;;56.70;53.85;;;;;;;;;;5114494;27;20027;-58
2024/04/01 03:51:42;;;;;;;56.58;53.72;;;;;;;;;;5116300;27;20039;-58
2024/04/01 03:54:07;;;;;;;46.25;43.90;;;;;;;;;;5098982;27;20035;-58
2024/04/01 03:56:32;;;;;;;46.33;43.97;;;;;;;;;;5115214;27;20062;-55
2024/04/01 03:58:58;;;;;;;43.60;41.38;;;;;;;;;;5118804;27;20036;-56
2024/04/01 04:01:23;;;;;;;44.05;41.80;;;;;;;;;;5095920;27;20024;-56
2024/04/01 04:03:48;;;;;;;41.67;39.42;;;;;;;;;;5116281;27;20074;-56
2024/04/01 04:06:14;;;;;;;42.53;40.35;;;;;;;;;;5113595;27;20059;-56
2024/04/01 04:08:39;;;;;;;45.25;42.95;;;;;;;;;;5118489;27;20086;-56
2024/04/01 04:11:09;;;;;;;42.28;40.10;;;;;;;;;;5113967;27;20050;-55
2024/04/01 04:13:34;;;;;;;43.95;41.72;;;;;;;;;;5113249;27;20185;-56
2024/04/01 04:16:00;;;;;;;41.50;39.38;;;;;;;;;;5114154;27;20516;-56
2024/04/01 04:18:26;;;;;;;43.78;41.55;;;;;;;;;;5095752;27;20054;-56
2024/04/01 04:20:54;;;;;;;42.50;40.35;;;;;;;;;;5111807;27;20055;-56
2024/04/01 04:23:20;;;;;;;44.33;42.08;;;;;;;;;;5113673;27;20096;-56
2024/04/01 04:25:46;;;;;;;45.70;43.10;;;;;;;;;;5112327;27;20043;-54
2024/04/01 04:28:11;;;;;;;43.78;41.55;;;;;;;;;;5115678;27;20352;-55
2024/04/01 04:30:37;;;;;;;43.80;41.55;;;;;;;;;;5116191;27;20042;-56
2024/04/01 04:33:02;;;;;;;47.40;45.00;;;;;;;;;;5116085;27;20106;-58
2024/04/01 04:35:27;;;;;;;55.95;52.88;;;;;;;;;;5113767;27;20106;-58
2024/04/01 04:37:53;;;;;;;53.50;50.78;;;;;;;;;;5113208;27;20491;-58
2024/04/01 04:40:18;;;;;;;58.40;55.45;;;;;;;;;;5114927;27;20034;-59
2024/04/01 04:42:44;;;;;;;54.13;51.38;;;;;;;;;;5114005;27;20039;-54
2024/04/01 04:45:09;;;;;;;55.08;52.05;;;;;;;;;;5117548;27;20031;-56
2024/04/01 04:47:35;;;;;;;50.85;48.25;;;;;;;;;;5115051;27;20031;-58
2024/04/01 04:50:00;;;;;;;45.45;43.15;;;;;;;;;;5114662;27;20118;-59
2024/04/01 04:52:26;;;;;;;46.78;44.28;;;;;;;;;;5113581;27;20043;-59
2024/04/01 04:54:51;;;;;;;47.25;44.80;;;;;;;;;;5115170;27;20058;-59
2024/04/01 04:57:16;;;;;;;50.35;47.80;;;;;;;;;;5116297;27;20030;-59
2024/04/01 04:59:42;;;;;;;48.50;46.05;;;;;;;;;;5113904;27;20039;-59
2024/04/01 05:02:07;;;;;;;48.42;45.95;;;;;;;;;;5115678;27;20023;-59
2024/04/01 05:04:34;;;;;;;49.92;47.42;;;;;;;;;;5110895;27;20475;-59
2024/04/01 05:07:00;;;;;;;48.03;45.60;;;;;;;;;;5113575;27;20028;-54
2024/04/01 05:09:26;;;;;;;45.53;43.22;;;;;;;;;;5112181;27;20710;-57
2024/04/01 05:11:51;;;;;;;44.30;42.05;;;;;;;;;;5115531;27;20122;-54
2024/04/01 05:14:16;;;;;;;40.10;38.05;;;;;;;;;;5113227;27;20110;-57
2024/04/01 05:16:42;;;;;;;43.78;41.58;;;;;;;;;;5096765;27;20066;-55
2024/04/01 05:19:07;;;;;;;44.80;42.30;;;;;;;;;;5112999;27;20403;-56
2024/04/01 05:21:33;;;;;;;41.80;39.60;;;;;;;;;;5110396;27;20090;-56
2024/04/01 05:23:58;;;;;;;37.40;35.50;;;;;;;;;;5117460;27;20417;-54
2024/04/01 05:26:23;;;;;;;35.50;33.65;;;;;;;;;;5110821;27;20089;-53
2024/04/01 05:28:49;;;;;;;39.10;36.50;;;;;;;;;;5118391;27;20104;-56
2024/04/01 05:31:15;;;;;;;36.78;34.90;;;;;;;;;;5095888;27;20027;-55
2024/04/01 05:33:40;;;;;;;40.30;38.25;;;;;;;;;;5109123;27;20430;-56
2024/04/01 05:36:06;;;;;;;59.17;56.17;;;;;;;;;;5113566;27;20088;-54
2024/04/01 05:38:32;;;;;;;43.67;41.42;;;;;;;;;;5114322;27;20539;-56
2024/04/01 05:40:57;;;;;;;51.03;48.45;;;;;;;;;;5115078;27;20039;-54
2024/04/01 05:43:22;;;;;;;52.35;49.67;;;;;;;;;;5110540;27;20456;-56
2024/04/01 05:45:49;;;;;;;45.47;43.15;;;;;;;;;;5113061;27;20356;-57
2024/04/01 05:48:16;;;;;;;59.95;56.90;;;;;;;;;;5113724;27;20075;-57
2024/04/01 05:50:46;;;;;;;59.67;56.55;;;;;;;;;;5112290;27;20121;-54
2024/04/01 05:53:11;;;;;;;65.28;62.03;;;;;;;;;;5112240;27;20385;-54
2024/04/01 05:55:38;;;;;;;53.63;50.75;;;;;;;;;;5112076;27;20033;-58
2024/04/01 05:58:04;;;;;;;47.70;45.28;;;;;;;;;;5111692;27;20031;-57
2024/04/01 06:00:29;;;;;;;49.60;47.05;;;;;;;;;;5105721;27;20038;-55
2024/04/01 06:02:54;;;;;;;47.65;45.22;;;;;;;;;;5112275;27;20161;-54
2024/04/01 06:05:20;;;;;;;64.50;61.25;;;;;;;;;;5089426;28;20035;-59
2024/04/01 06:07:47;;;;;;;59.03;56.03;;;;;;;;;;5100082;28;20035;-56
2024/04/01 06:10:12;;;;;;;62.38;59.15;;;;;;;;;;5122396;27;20046;-58
2024/04/01 06:12:37;;;;;;;63.55;60.35;;;;;;;;;;5118502;27;20521;-57
2024/04/01 06:15:03;;;;;;;65.55;62.25;;;;;;;;;;5118833;27;20028;-56
2024/04/01 06:17:28;;;;;;;65.13;61.83;;;;;;;;;;5119337;27;20039;-56
2024/04/01 06:19:54;;;;;;;75.43;71.65;;;;;;;;;;5120478;27;20039;-56
2024/04/01 06:22:19;;;;;;;70.82;67.22;;;;;;;;;;5122103;27;20038;-54
2024/04/01 06:24:46;;;;;;;76.53;72.68;;;;;;;;;;5118761;27;20072;-55
2024/04/01 06:27:12;;;;;;;76.43;72.53;;;;;;;;;;5120309;27;20053;-56
2024/04/01 06:29:38;;;;;;;75.50;71.65;;;;;;;;;;5116236;27;20688;-56
2024/04/01 06:32:03;;;;;;;71.88;68.15;;;;;;;;;;5116012;27;20155;-58
2024/04/01 06:34:29;;;;;;;74.50;70.78;;;;;;;;;;5116120;27;20488;-55
2024/04/01 06:36:54;;;;;;;78.20;74.32;;;;;;;;;;5117527;27;20071;-56
2024/04/01 06:39:20;;;;;;;88.07;83.68;;;;;;;;;;5119899;27;20109;-54
2024/04/01 06:41:46;;;;;;;85.57;81.32;;;;;;;;;;5100898;27;20032;-56
2024/04/01 06:44:11;;;;;;;74.45;70.75;;;;;;;;;;5100631;27;20457;-55
2024/04/01 06:46:37;;;;;;;80.28;76.28;;;;;;;;;;5119011;27;20699;-56
2024/04/01 06:49:03;;;;;;;80.25;76.25;;;;;;;;;;5118088;27;20666;-57
2024/04/01 06:51:29;;;;;;;76.50;72.70;;;;;;;;;;5118733;27;20041;-55
2024/04/01 06:53:54;;;;;;;89.13;84.63;;;;;;;;;;5116717;27;20030;-56
2024/04/01 06:56:20;;;;;;;77.30;73.47;;;;;;;;;;5117897;27;20487;-55
2024/04/01 06:58:45;;;;;;;90.45;85.65;;;;;;;;;;5116215;27;20027;-56
2024/04/01 07:01:10;;;;;;;84.68;80.47;;;;;;;;;;5118327;27;20132;-58
2024/04/01 07:03:35;;;;;;;84.20;80.03;;;;;;;;;;5116990;27;20139;-54
2024/04/01 07:06:01;;;;;;;95.65;90.90;;;;;;;;;;5119820;27;20046;-56
2024/04/01 07:08:27;;;;;;;104.13;98.97;;;;;;;;;;5117347;27;20035;-56
2024/04/01 07:10:52;;;;;;;96.38;91.55;;;;;;;;;;5118912;27;20100;-56
2024/04/01 07:13:17;;;;;;;99.72;94.70;;;;;;;;;;5118874;27;20070;-56
2024/04/01 07:15:44;;;;;;;91.30;86.75;;;;;;;;;;5117243;27;20023;-57
2024/04/01 07:18:10;;;;;;;94.10;89.43;;;;;;;;;;5117638;27;20475;-54
2024/04/01 07:20:35;;;;;;;104.15;99.00;;;;;;;;;;5114575;27;20038;-54
2024/04/01 07:23:00;;;;;;;108.47;103.13;;;;;;;;;;5112124;27;20027;-49
2024/04/01 07:25:26;;;;;;;99.00;94.10;;;;;;;;;;5112661;27;20521;-54
2024/04/01 07:27:51;;;;;;;104.63;99.45;;;;;;;;;;5116529;27;20064;-51
2024/04/01 07:30:16;;;;;;;90.15;85.65;;;;;;;;;;5115478;27;20527;-50
2024/04/01 07:32:42;;;;;;;96.63;91.82;;;;;;;;;;5112026;27;20078;-53
2024/04/01 07:35:07;;;;;;;90.97;86.47;;;;;;;;;;5114409;27;20043;-51
2024/04/01 07:37:32;;;;;;;96.40;91.63;;;;;;;;;;5113065;27;20036;-53
2024/04/01 07:39:58;;;;;;;98.28;93.40;;;;;;;;;;5116658;27;20104;-49
2024/04/01 07:42:24;;;;;;;99.32;94.40;;;;;;;;;;5113447;27;20032;-49
2024/04/01 07:44:50;;;;;;;96.70;91.90;;;;;;;;;;5109576;27;20036;-53
2024/04/01 07:47:15;;;;;;;108.90;103.47;;;;;;;;;;5094539;27;20039;-56
2024/04/01 07:49:41;;;;;;;99.25;94.32;;;;;;;;;;5111125;27;20068;-58
2024/04/01 07:52:07;;;;;;;93.47;88.63;;;;;;;;;;5116276;27;20035;-58
2024/04/01 07:54:33;;;;;;;96.88;92.07;;;;;;;;;;5112307;27;20110;-59
2024/04/01 07:57:02;;;;;;;101.93;96.88;;;;;;;;;;5115723;27;20479;-58
2024/04/01 07:59:27;;;;;;;110.70;105.25;;;;;;;;;;5116126;27;20031;-59
2024/04/01 08:01:53;;;;;;;116.93;111.03;;;;;;;;;;5114687;27;20109;-58
2024/04/01 08:04:18;;;;;;;121.63;115.63;;;;;;;;;;5112630;27;20035;-56
2024/04/01 08:06:44;;;;;;;110.82;105.35;;;;;;;;;;5114523;27;20027;-57
2024/04/01 08:09:10;;;;;;;92.00;87.45;;;;;;;;;;5097519;27;20039;-57
2024/04/01 08:11:35;;;;;;;95.78;91.03;;;;;;;;;;5094824;27;20038;-58
2024/04/01 08:14:00;;;;;;;70.65;67.13;;;;;;;;;;5115509;27;20035;-59
2024/04/01 08:16:26;;;;;;;59.03;56.05;;;;;;;;;;5113275;27;20055;-57
2024/04/01 08:18:51;;;;;;;45.55;43.20;;;;;;;;;;5112000;27;20492;-55
2024/04/01 08:21:17;;;;;;;43.63;41.42;;;;;;;;;;5114004;27;20043;-57
2024/04/01 08:23:43;;;;;;;48.28;45.85;;;;;;;;;;5112835;27;20058;-58
2024/04/01 08:26:08;;;;;;;54.95;52.13;;;;;;;;;;5112641;27;20039;-56
2024/04/01 08:28:33;;;;;;;47.75;45.30;;;;;;;;;;5075228;27;20099;-56
2024/04/01 08:30:59;;;;;;;53.58;50.88;;;;;;;;;;5062403;28;20029;-54
2024/04/01 08:33:24;;;;;;;58.92;55.97;;;;;;;;;;5046157;28;20481;-56
2024/04/01 08:35:50;;;;;;;58.05;55.10;;;;;;;;;;5061124;28;20036;-59
2024/04/01 08:38:16;;;;;;;53.85;51.15;;;;;;;;;;5061063;28;20625;-58
2024/04/01 08:40:56;;;;;;;40.90;38.85;;;;;;;;;;5062959;28;20048;-56
2024/04/01 08:43:39;;;;;;;37.42;35.50;;;;;;;;;;5061619;28;20055;-57
2024/04/01 08:46:05;;;;;;;39.38;37.38;;;;;;;;;;5061815;28;20478;-56
2024/04/01 08:48:31;;;;;;;35.88;34.05;;;;;;;;;;5060527;28;20033;-56
2024/04/01 08:51:03;;;;;;;39.05;37.05;;;;;;;;;;5059116;28;20037;-58
2024/04/01 08:53:47;;;;;;;42.25;40.13;;;;;;;;;;5059527;28;20052;-57
2024/04/01 08:56:13;;;;;;;39.83;37.78;;;;;;;;;;5061248;28;20113;-58
2024/04/01 08:58:38;;;;;;;41.55;39.45;;;;;;;;;;5059577;28;20834;-56
2024/04/01 09:01:04;;;;;;;37.83;35.92;;;;;;;;;;5061182;28;20032;-57
2024/04/01 09:03:29;;;;;;;35.35;33.55;;;;;;;;;;5061595;28;20122;-56
2024/04/01 09:05:57;;;;;;;37.72;35.78;;;;;;;;;;5060343;28;20369;-57
2024/04/01 09:08:27;;;;;;;38.10;36.10;;;;;;;;;;5059821;28;20036;-58
2024/04/01 09:10:52;;;;;;;41.10;38.45;;;;;;;;;;5060699;28;20040;-59
2024/04/01 09:13:19;;;;;;;37.58;35.67;;;;;;;;;;5044175;28;20472;-57
2024/04/01 09:15:45;;;;;;;36.78;34.88;;;;;;;;;;5060570;28;20146;-58
2024/04/01 09:18:14;;;;;;;43.92;41.72;;;;;;;;;;5060398;28;20047;-58
2024/04/01 09:20:41;;;;;;;41.47;39.17;;;;;;;;;;5057236;28;20109;-58
2024/04/01 09:23:07;;;;;;;40.58;38.55;;;;;;;;;;5059886;28;20028;-58
2024/04/01 09:25:32;;;;;;;41.42;39.33;;;;;;;;;;5057855;28;20342;-54
2024/04/01 09:27:58;;;;;;;38.40;36.40;;;;;;;;;;5060162;28;20037;-59
2024/04/01 09:30:24;;;;;;;36.25;34.40;;;;;;;;;;5044536;28;20028;-57
2024/04/01 09:32:49;;;;;;;42.38;39.95;;;;;;;;;;5059345;28;20060;-55
2024/04/01 09:35:15;;;;;;;39.00;37.00;;;;;;;;;;5060212;28;20351;-58
2024/04/01 09:37:42;;;;;;;42.53;40.33;;;;;;;;;;5057198;28;20133;-58
2024/04/01 09:40:08;;;;;;;44.08;41.85;;;;;;;;;;5059105;28;20151;-57
2024/04/01 09:42:34;;;;;;;46.03;43.70;;;;;;;;;;5057870;28;20117;-59
2024/04/01 09:45:00;;;;;;;43.70;41.50;;;;;;;;;;5041620;28;20064;-60
2024/04/01 09:47:25;;;;;;;51.58;48.97;;;;;;;;;;5056678;28;20110;-59
2024/04/01 09:49:52;;;;;;;53.17;50.47;;;;;;;;;;5056027;28;20451;-60
2024/04/01 09:52:18;;;;;;;52.13;49.50;;;;;;;;;;5059762;28;20040;-56
2024/04/01 09:54:49;;;;;;;53.70;51.00;;;;;;;;;;5059414;28;20032;-57
2024/04/01 09:57:49;;;;;;;54.88;52.10;;;;;;;;;;5060954;28;20085;-54
2024/04/01 10:00:16;;;;;;;48.10;45.67;;;;;;;;;;5059980;28;20032;-57
2024/04/01 10:03:12;;;;;;;49.22;46.75;;;;;;;;;;5059843;28;20136;-56
2024/04/01 10:06:08;;;;;;;45.63;43.33;;;;;;;;;;5039892;28;20032;-57
2024/04/01 10:09:16;;;;;;;44.95;42.67;;;;;;;;;;5058505;28;20036;-56
2024/04/01 10:12:07;;;;;;;47.08;44.65;;;;;;;;;;5057161;28;20044;-58
2024/04/01 10:14:57;;;;;;;47.08;44.67;;;;;;;;;;5056999;28;20032;-58
2024/04/01 10:18:00;;;;;;;45.30;43.00;;;;;;;;;;5059454;28;20041;-62
2024/04/01 10:20:51;;;;;;;47.78;45.38;;;;;;;;;;5059688;28;21095;-57
2024/04/01 10:23:43;;;;;;;;;;;;;;;;;;5058327;28;20064;-58
2024/04/01 10:26:27;;;;;;;44.45;42.20;;;;;;;;;;5036402;28;19924;-62
2024/04/01 10:29:29;;;;;;;42.75;40.58;;;;;;;;;;5059261;28;20047;-60
2024/04/01 10:32:03;;;;;;;41.30;39.20;;;;;;;;;;5059041;28;20086;-59
2024/04/01 10:34:48;;;;;;;40.65;38.60;;;;;;;;;;5058428;28;20028;-60
2024/04/01 10:37:47;;;;;;;42.00;39.85;;;;;;;;;;5057929;28;20036;-59
2024/04/01 10:40:42;;;;;;;43.97;41.72;;;;;;;;;;5058497;28;20030;-59
2024/04/01 10:43:45;;;;;;;43.90;41.65;;;;;;;;;;5060197;28;20111;-59
2024/04/01 10:46:20;;;;;;;46.47;44.10;;;;;;;;;;5042230;28;20080;-59
2024/04/01 10:49:20;;;;;;;51.42;48.47;;;;;;;;;;5059644;28;20032;-59
2024/04/01 10:52:04;;;;;;;46.60;44.03;;;;;;;;;;5025743;28;20073;-59
2024/04/01 10:55:07;;;;;;;47.42;45.05;;;;;;;;;;5060115;28;20028;-59
2024/04/01 10:58:10;;;;;;;42.75;40.60;;;;;;;;;;5062458;28;20047;-59
2024/04/01 11:00:56;;;;;;;48.05;45.60;;;;;;;;;;5040864;28;20035;-60
2024/04/01 11:03:40;;;;;;;49.83;47.33;;;;;;;;;;5062788;28;20037;-59
2024/04/01 11:06:27;;;;;;;43.63;41.42;;;;;;;;;;5061685;28;20471;-59
2024/04/01 11:09:21;;;;;;;41.13;39.03;;;;;;;;;;5061727;28;20036;-59
2024/04/01 11:12:02;;;;;;;43.40;41.20;;;;;;;;;;5044101;28;20037;-59
2024/04/01 11:14:28;;;;;;;;;;;;;;;;;;5057840;28;20553;-58
2024/04/01 11:16:55;;;;;;;39.97;37.95;;;;;;;;;;5061082;28;20394;-59
2024/04/01 11:20:04;;;;;;;43.45;41.25;;;;;;;;;;5060083;28;20059;-59
2024/04/01 11:22:50;;;;;;;37.65;35.67;;;;;;;;;;5060606;28;20141;-59
2024/04/01 11:25:44;;;;;;;39.63;37.60;;;;;;;;;;5048108;28;20025;-59
2024/04/01 11:28:18;;;;;;;41.30;39.17;;;;;;;;;;5061457;28;20596;-59
2024/04/01 11:30:45;;;;;;;45.10;42.83;;;;;;;;;;5062005;28;20032;-59
2024/04/01 11:33:15;;;;;;;45.67;43.35;;;;;;;;;;5060889;28;20075;-60
2024/04/01 11:35:48;;;;;;;45.40;43.10;;;;;;;;;;5046361;28;20086;-60
2024/04/01 11:38:39;;;;;;;41.63;39.50;;;;;;;;;;5062154;28;20378;-59
2024/04/01 11:41:10;;;;;;;40.60;38.50;;;;;;;;;;5062553;28;20047;-60
2024/04/01 11:43:37;;;;;;;40.33;38.22;;;;;;;;;;5058197;28;20044;-60
2024/04/01 11:46:05;;;;;;;39.15;37.13;;;;;;;;;;5059137;28;20450;-60
2024/04/01 11:48:30;;;;;;;42.90;40.70;;;;;;;;;;5061069;28;20047;-60
2024/04/01 11:50:59;;;;;;;47.95;45.53;;;;;;;;;;5060083;28;20028;-60
2024/04/01 11:53:24;;;;;;;48.15;45.72;;;;;;;;;;5059054;28;20523;-61
2024/04/01 11:55:54;;;;;;;45.78;43.45;;;;;;;;;;5046037;28;20124;-61
2024/04/01 11:58:20;;;;;;;44.13;41.90;;;;;;;;;;5061992;28;20139;-60
2024/04/01 12:00:53;;;;;;;38.97;36.97;;;;;;;;;;5062219;28;20181;-60
2024/04/01 12:03:20;;;;;;;37.30;35.40;;;;;;;;;;5059828;28;20117;-61
2024/04/01 12:05:48;;;;;;;43.45;41.25;;;;;;;;;;5061911;28;20028;-60
2024/04/01 12:08:24;;;;;;;46.55;44.17;;;;;;;;;;5059195;28;20044;-60
2024/04/01 12:10:50;;;;;;;41.67;39.55;;;;;;;;;;5043377;28;20040;-61
2024/04/01 12:13:16;;;;;;;45.75;43.45;;;;;;;;;;5059390;28;20450;-61
2024/04/01 12:15:43;;;;;;;40.85;38.58;;;;;;;;;;5061486;28;20040;-60
2024/04/01 12:18:11;;;;;;;41.75;39.63;;;;;;;;;;5061149;28;20037;-60
2024/04/01 12:20:39;;;;;;;41.53;39.40;;;;;;;;;;5060939;28;20028;-60
2024/04/01 12:23:06;;;;;;;42.72;40.55;;;;;;;;;;5056407;28;20036;-60
2024/04/01 12:25:31;;;;;;;43.65;41.45;;;;;;;;;;5045256;28;20039;-60
2024/04/01 12:28:03;;;;;;;44.45;42.17;;;;;;;;;;5059599;28;20044;-60
2024/04/01 12:30:28;;;;;;;38.97;36.97;;;;;;;;;;5059342;28;20379;-60
2024/04/01 12:32:55;;;;;;;43.15;40.95;;;;;;;;;;5059953;28;20047;-60
2024/04/01 12:35:20;;;;;;;41.63;39.53;;;;;;;;;;5043336;28;20409;-60
2024/04/01 12:37:48;;;;;;;42.95;40.75;;;;;;;;;;5056206;28;20043;-60
2024/04/01 12:40:16;;;;;;;44.90;42.60;;;;;;;;;;5061231;28;20039;-60
2024/04/01 12:42:43;;;;;;;43.53;41.33;;;;;;;;;;5046463;28;20241;-60
2024/04/01 12:45:10;;;;;;;41.70;39.60;;;;;;;;;;5061721;28;20028;-60
2024/04/01 12:47:36;;;;;;;40.53;38.47;;;;;;;;;;5061147;28;20166;-61
2024/04/01 12:50:02;;;;;;;40.50;38.45;;;;;;;;;;5059394;28;20048;-61
2024/04/01 12:53:03;;;;;;;41.10;39.00;;;;;;;;;;5062844;28;20029;-60
2024/04/01 12:55:32;;;;;;;40.08;37.97;;;;;;;;;;5062674;28;20032;-60
2024/04/01 12:58:15;;;;;;;41.42;39.33;;;;;;;;;;5059430;28;20036;-60
2024/04/01 13:00:47;;;;;;;40.65;38.58;;;;;;;;;;5060886;28;20535;-60
2024/04/01 13:03:27;;;;;;;37.28;35.38;;;;;;;;;;5059507;28;20040;-60
2024/04/01 13:06:39;;;;;;;38.92;36.92;;;;;;;;;;5059567;28;20047;-59
2024/04/01 13:09:11;;;;;;;38.50;36.50;;;;;;;;;;5049834;28;20044;-60
2024/04/01 13:11:56;;;;;;;38.65;36.65;;;;;;;;;;5059700;28;20041;-60
2024/04/01 13:14:50;;;;;;;39.78;37.67;;;;;;;;;;5043010;28;20062;-59
2024/04/01 13:17:21;;;;;;;41.00;38.90;;;;;;;;;;5046829;28;20036;-60
2024/04/01 13:19:49;;;;;;;40.42;38.33;;;;;;;;;;5058943;28;20170;-60
2024/04/01 13:22:42;;;;;;;39.40;37.40;;;;;;;;;;5057971;28;20044;-60
2024/04/01 13:25:19;;;;;;;40.35;38.28;;;;;;;;;;5061691;28;20036;-60
2024/04/01 13:27:56;;;;;;;36.30;34.40;;;;;;;;;;5060302;28;20068;-58
2024/04/01 13:30:38;;;;;;;36.55;34.65;;;;;;;;;;5059710;28;20382;-59
2024/04/01 13:33:04;;;;;;;34.90;33.10;;;;;;;;;;5058698;28;20359;-58
2024/04/01 13:36:11;;;;;;;33.05;31.35;;;;;;;;;;5059690;28;20043;-59
2024/04/01 13:39:02;;;;;;;32.38;30.67;;;;;;;;;;5058213;28;20024;-57
2024/04/01 13:41:53;;;;;;;31.85;30.23;;;;;;;;;;5056619;28;20036;-58
2024/04/01 13:44:35;;;;;;;31.58;29.98;;;;;;;;;;5058661;28;20819;-59
2024/04/01 13:47:17;;;;;;;32.42;30.73;;;;;;;;;;5055752;28;20113;-56
2024/04/01 13:50:03;;;;;;;32.53;29.67;;;;;;;;;;5042070;28;20033;-59
2024/04/01 13:52:56;;;;;;;35.10;33.30;;;;;;;;;;5059140;28;20036;-59
2024/04/01 13:55:34;;;;;;;34.45;32.55;;;;;;;;;;5059989;28;20046;-60
2024/04/01 13:58:21;;;;;;;31.45;29.75;;;;;;;;;;5059047;28;20369;-58
2024/04/01 14:01:02;;;;;;;30.77;29.17;;;;;;;;;;5059274;28;20135;-59
2024/04/01 14:03:43;;;;;;;29.38;27.77;;;;;;;;;;5058189;28;20043;-59
2024/04/01 14:06:11;;;;;;;29.25;27.65;;;;;;;;;;5057519;28;20459;-59
2024/04/01 14:08:49;;;;;;;30.60;29.00;;;;;;;;;;5056926;28;20410;-59
2024/04/01 14:11:43;;;;;;;29.08;27.58;;;;;;;;;;5044769;28;20047;-59
2024/04/01 14:14:14;;;;;;;28.42;26.92;;;;;;;;;;5058339;28;20119;-59
2024/04/01 14:17:04;;;;;;;28.52;27.02;;;;;;;;;;5059699;28;20032;-59
2024/04/01 14:19:44;;;;;;;26.83;25.42;;;;;;;;;;5057830;28;20374;-59
2024/04/01 14:22:10;;;;;;;28.70;27.20;;;;;;;;;;5058865;28;20040;-59
2024/04/01 14:24:35;;;;;;;28.25;26.75;;;;;;;;;;5040216;28;20036;-59
2024/04/01 14:27:01;;;;;;;29.08;27.58;;;;;;;;;;5042907;28;20036;-59
2024/04/01 14:29:26;;;;;;;26.52;25.13;;;;;;;;;;5059036;28;20173;-59